sensor_id;sensor_type;location;lat;lon;timestamp;pressure;altitude;pressure_sealevel;temperature
68127;BMP180;54931;52.098;21.006;2023-09-19T00:00:57;99621.00;;;17.00
68127;BMP180;54931;52.098;21.006;2023-09-19T00:03:38;99620.60;;;17.00
68127;BMP180;54931;52.098;21.006;2023-09-19T00:06:06;99616.80;;;17.00
68127;BMP180;54931;52.098;21.006;2023-09-19T00:08:37;99609.60;;;17.00
68127;BMP180;54931;52.098;21.006;2023-09-19T00:11:05;99612.00;;;17.00
68127;BMP180;54931;52.098;21.006;2023-09-19T00:13:33;99608.20;;;17.00
68127;BMP180;54931;52.098;21.006;2023-09-19T00:16:11;99604.40;;;17.00
68127;BMP180;54931;52.098;21.006;2023-09-19T00:18:38;99607.00;;;17.00
68127;BMP180;54931;52.098;21.006;2023-09-19T00:21:06;99610.40;;;17.00
68127;BMP180;54931;52.098;21.006;2023-09-19T00:23:35;99606.00;;;17.00
68127;BMP180;54931;52.098;21.006;2023-09-19T00:26:02;99607.00;;;17.00
68127;BMP180;54931;52.098;21.006;2023-09-19T00:28:32;99606.60;;;17.00
68127;BMP180;54931;52.098;21.006;2023-09-19T00:30:59;99611.60;;;17.00
68127;BMP180;54931;52.098;21.006;2023-09-19T00:33:29;99604.60;;;17.00
68127;BMP180;54931;52.098;21.006;2023-09-19T00:35:57;99603.00;;;17.00
68127;BMP180;54931;52.098;21.006;2023-09-19T00:38:25;99596.80;;;17.00
68127;BMP180;54931;52.098;21.006;2023-09-19T00:40:55;99590.20;;;17.00
68127;BMP180;54931;52.098;21.006;2023-09-19T00:43:24;99595.00;;;17.00
68127;BMP180;54931;52.098;21.006;2023-09-19T00:45:54;99598.20;;;17.00
68127;BMP180;54931;52.098;21.006;2023-09-19T00:48:24;99592.80;;;17.00
68127;BMP180;54931;52.098;21.006;2023-09-19T00:51:02;99589.20;;;17.00
68127;BMP180;54931;52.098;21.006;2023-09-19T00:53:32;99589.60;;;17.00
68127;BMP180;54931;52.098;21.006;2023-09-19T00:56:03;99585.20;;;17.00
68127;BMP180;54931;52.098;21.006;2023-09-19T00:58:36;99586.60;;;16.94
68127;BMP180;54931;52.098;21.006;2023-09-19T01:01:05;99586.80;;;16.92
68127;BMP180;54931;52.098;21.006;2023-09-19T01:03:39;99590.40;;;16.90
68127;BMP180;54931;52.098;21.006;2023-09-19T01:06:08;99580.40;;;16.90
68127;BMP180;54931;52.098;21.006;2023-09-19T01:08:36;99572.20;;;16.90
68127;BMP180;54931;52.098;21.006;2023-09-19T01:11:28;99572.20;;;16.90
68127;BMP180;54931;52.098;21.006;2023-09-19T01:17:33;99577.60;;;16.90
68127;BMP180;54931;52.098;21.006;2023-09-19T01:24:07;99560.80;;;17.00
68127;BMP180;54931;52.098;21.006;2023-09-19T01:29:41;99553.00;;;17.00
68127;BMP180;54931;52.098;21.006;2023-09-19T01:32:17;99547.00;;;17.00
68127;BMP180;54931;52.098;21.006;2023-09-19T01:34:54;99550.80;;;17.00
68127;BMP180;54931;52.098;21.006;2023-09-19T01:37:24;99551.40;;;17.00
68127;BMP180;54931;52.098;21.006;2023-09-19T01:40:06;99543.00;;;16.94
68127;BMP180;54931;52.098;21.006;2023-09-19T01:42:59;99541.60;;;16.98
68127;BMP180;54931;52.098;21.006;2023-09-19T01:45:46;99540.60;;;17.00
68127;BMP180;54931;52.098;21.006;2023-09-19T01:51:56;99535.20;;;17.00
68127;BMP180;54931;52.098;21.006;2023-09-19T01:54:36;99530.60;;;17.00
68127;BMP180;54931;52.098;21.006;2023-09-19T02:00:06;99528.00;;;17.08
68127;BMP180;54931;52.098;21.006;2023-09-19T02:02:38;99528.00;;;17.10
68127;BMP180;54931;52.098;21.006;2023-09-19T02:05:08;99530.40;;;17.10
68127;BMP180;54931;52.098;21.006;2023-09-19T02:07:36;99534.40;;;17.10
68127;BMP180;54931;52.098;21.006;2023-09-19T02:10:06;99538.00;;;17.10
68127;BMP180;54931;52.098;21.006;2023-09-19T02:12:34;99534.00;;;17.10
68127;BMP180;54931;52.098;21.006;2023-09-19T02:15:03;99531.60;;;17.10
68127;BMP180;54931;52.098;21.006;2023-09-19T02:17:35;99523.20;;;17.10
68127;BMP180;54931;52.098;21.006;2023-09-19T02:20:03;99522.20;;;17.10
68127;BMP180;54931;52.098;21.006;2023-09-19T02:22:42;99521.40;;;17.10
68127;BMP180;54931;52.098;21.006;2023-09-19T02:25:10;99516.80;;;17.10
68127;BMP180;54931;52.098;21.006;2023-09-19T02:27:38;99515.40;;;17.10
68127;BMP180;54931;52.098;21.006;2023-09-19T02:30:07;99503.60;;;17.10
68127;BMP180;54931;52.098;21.006;2023-09-19T02:32:35;99501.00;;;17.00
68127;BMP180;54931;52.098;21.006;2023-09-19T02:35:07;99510.40;;;17.00
68127;BMP180;54931;52.098;21.006;2023-09-19T02:37:35;99509.40;;;17.00
68127;BMP180;54931;52.098;21.006;2023-09-19T02:40:03;99504.40;;;16.90
68127;BMP180;54931;52.098;21.006;2023-09-19T02:42:52;99502.20;;;16.90
68127;BMP180;54931;52.098;21.006;2023-09-19T02:45:20;99505.60;;;16.80
68127;BMP180;54931;52.098;21.006;2023-09-19T02:47:51;99505.40;;;16.80
68127;BMP180;54931;52.098;21.006;2023-09-19T02:50:19;99505.80;;;16.70
68127;BMP180;54931;52.098;21.006;2023-09-19T02:52:48;99500.40;;;16.70
68127;BMP180;54931;52.098;21.006;2023-09-19T02:55:19;99493.00;;;16.70
68127;BMP180;54931;52.098;21.006;2023-09-19T02:57:51;99486.40;;;16.60
68127;BMP180;54931;52.098;21.006;2023-09-19T03:00:23;99482.80;;;16.60
68127;BMP180;54931;52.098;21.006;2023-09-19T03:02:54;99479.00;;;16.50
68127;BMP180;54931;52.098;21.006;2023-09-19T03:05:23;99476.00;;;16.50
68127;BMP180;54931;52.098;21.006;2023-09-19T03:07:52;99473.00;;;16.42
68127;BMP180;54931;52.098;21.006;2023-09-19T03:10:21;99473.60;;;16.40
68127;BMP180;54931;52.098;21.006;2023-09-19T03:12:50;99470.80;;;16.40
68127;BMP180;54931;52.098;21.006;2023-09-19T03:15:17;99472.20;;;16.40
68127;BMP180;54931;52.098;21.006;2023-09-19T03:17:47;99472.40;;;16.30
68127;BMP180;54931;52.098;21.006;2023-09-19T03:20:15;99473.80;;;16.30
68127;BMP180;54931;52.098;21.006;2023-09-19T03:22:48;99473.60;;;16.30
68127;BMP180;54931;52.098;21.006;2023-09-19T03:25:16;99474.20;;;16.30
68127;BMP180;54931;52.098;21.006;2023-09-19T03:27:44;99473.00;;;16.30
68127;BMP180;54931;52.098;21.006;2023-09-19T03:30:12;99466.80;;;16.24
68127;BMP180;54931;52.098;21.006;2023-09-19T03:32:48;99464.60;;;16.20
68127;BMP180;54931;52.098;21.006;2023-09-19T03:35:18;99459.20;;;16.20
68127;BMP180;54931;52.098;21.006;2023-09-19T03:37:46;99462.00;;;16.20
68127;BMP180;54931;52.098;21.006;2023-09-19T03:40:14;99462.20;;;16.20
68127;BMP180;54931;52.098;21.006;2023-09-19T03:42:43;99462.40;;;16.20
68127;BMP180;54931;52.098;21.006;2023-09-19T03:45:11;99465.40;;;16.14
68127;BMP180;54931;52.098;21.006;2023-09-19T03:47:43;99462.60;;;16.10
68127;BMP180;54931;52.098;21.006;2023-09-19T03:50:14;99458.00;;;16.10
68127;BMP180;54931;52.098;21.006;2023-09-19T03:52:45;99461.40;;;16.16
68127;BMP180;54931;52.098;21.006;2023-09-19T03:55:13;99456.80;;;16.20
68127;BMP180;54931;52.098;21.006;2023-09-19T03:57:41;99461.60;;;16.20
68127;BMP180;54931;52.098;21.006;2023-09-19T04:00:10;99461.20;;;16.20
68127;BMP180;54931;52.098;21.006;2023-09-19T04:02:42;99454.60;;;16.24
68127;BMP180;54931;52.098;21.006;2023-09-19T04:05:10;99454.00;;;16.30
68127;BMP180;54931;52.098;21.006;2023-09-19T04:07:38;99448.20;;;16.30
68127;BMP180;54931;52.098;21.006;2023-09-19T04:10:06;99448.20;;;16.30
68127;BMP180;54931;52.098;21.006;2023-09-19T04:12:36;99440.80;;;16.30
68127;BMP180;54931;52.098;21.006;2023-09-19T04:15:05;99437.20;;;16.30
68127;BMP180;54931;52.098;21.006;2023-09-19T04:17:33;99431.00;;;16.20
68127;BMP180;54931;52.098;21.006;2023-09-19T04:20:01;99433.80;;;16.20
68127;BMP180;54931;52.098;21.006;2023-09-19T04:22:29;99434.40;;;16.20
68127;BMP180;54931;52.098;21.006;2023-09-19T04:24:57;99437.80;;;16.20
68127;BMP180;54931;52.098;21.006;2023-09-19T04:27:25;99436.80;;;16.20
68127;BMP180;54931;52.098;21.006;2023-09-19T04:29:53;99433.80;;;16.10
68127;BMP180;54931;52.098;21.006;2023-09-19T04:32:21;99432.20;;;16.10
68127;BMP180;54931;52.098;21.006;2023-09-19T04:34:49;99424.00;;;16.10
68127;BMP180;54931;52.098;21.006;2023-09-19T04:37:17;99416.20;;;16.12
68127;BMP180;54931;52.098;21.006;2023-09-19T04:39:45;99415.00;;;16.18
68127;BMP180;54931;52.098;21.006;2023-09-19T04:42:13;99413.60;;;16.20
68127;BMP180;54931;52.098;21.006;2023-09-19T04:44:45;99417.00;;;16.20
68127;BMP180;54931;52.098;21.006;2023-09-19T04:47:12;99425.20;;;16.20
68127;BMP180;54931;52.098;21.006;2023-09-19T04:49:40;99420.20;;;16.20
68127;BMP180;54931;52.098;21.006;2023-09-19T04:52:08;99413.40;;;16.20
68127;BMP180;54931;52.098;21.006;2023-09-19T04:54:35;99413.60;;;16.22
68127;BMP180;54931;52.098;21.006;2023-09-19T04:57:04;99419.20;;;16.30
68127;BMP180;54931;52.098;21.006;2023-09-19T04:59:33;99419.60;;;16.30
68127;BMP180;54931;52.098;21.006;2023-09-19T05:02:00;99418.00;;;16.36
68127;BMP180;54931;52.098;21.006;2023-09-19T05:04:28;99419.60;;;16.40
68127;BMP180;54931;52.098;21.006;2023-09-19T05:06:56;99414.60;;;16.40
68127;BMP180;54931;52.098;21.006;2023-09-19T05:09:24;99414.80;;;16.50
68127;BMP180;54931;52.098;21.006;2023-09-19T05:11:52;99409.60;;;16.50
68127;BMP180;54931;52.098;21.006;2023-09-19T05:14:20;99411.80;;;16.60
68127;BMP180;54931;52.098;21.006;2023-09-19T05:16:48;99410.40;;;16.70
68127;BMP180;54931;52.098;21.006;2023-09-19T05:19:16;99409.60;;;16.70
68127;BMP180;54931;52.098;21.006;2023-09-19T05:21:44;99408.20;;;16.80
68127;BMP180;54931;52.098;21.006;2023-09-19T05:24:12;99410.00;;;16.90
68127;BMP180;54931;52.098;21.006;2023-09-19T05:26:42;99414.60;;;16.90
68127;BMP180;54931;52.098;21.006;2023-09-19T05:29:09;99415.80;;;16.92
68127;BMP180;54931;52.098;21.006;2023-09-19T05:31:38;99412.80;;;17.00
68127;BMP180;54931;52.098;21.006;2023-09-19T05:34:08;99414.00;;;17.00
68127;BMP180;54931;52.098;21.006;2023-09-19T05:36:37;99409.40;;;17.08
68127;BMP180;54931;52.098;21.006;2023-09-19T05:39:07;99411.80;;;17.10
68127;BMP180;54931;52.098;21.006;2023-09-19T05:41:36;99409.80;;;17.10
68127;BMP180;54931;52.098;21.006;2023-09-19T05:44:07;99408.60;;;17.20
68127;BMP180;54931;52.098;21.006;2023-09-19T05:46:35;99402.40;;;17.28
68127;BMP180;54931;52.098;21.006;2023-09-19T05:49:03;99403.60;;;17.30
68127;BMP180;54931;52.098;21.006;2023-09-19T05:51:31;99398.20;;;17.40
68127;BMP180;54931;52.098;21.006;2023-09-19T05:53:59;99396.00;;;17.50
68127;BMP180;54931;52.098;21.006;2023-09-19T05:56:27;99393.40;;;17.56
68127;BMP180;54931;52.098;21.006;2023-09-19T05:58:55;99390.00;;;17.60
68127;BMP180;54931;52.098;21.006;2023-09-19T06:01:23;99395.60;;;17.70
68127;BMP180;54931;52.098;21.006;2023-09-19T06:03:50;99393.60;;;17.80
68127;BMP180;54931;52.098;21.006;2023-09-19T06:06:20;99396.20;;;17.88
68127;BMP180;54931;52.098;21.006;2023-09-19T06:08:49;99391.80;;;18.00
68127;BMP180;54931;52.098;21.006;2023-09-19T06:11:17;99396.80;;;18.10
68127;BMP180;54931;52.098;21.006;2023-09-19T06:13:47;99394.80;;;18.10
68127;BMP180;54931;52.098;21.006;2023-09-19T06:16:16;99399.00;;;18.20
68127;BMP180;54931;52.098;21.006;2023-09-19T06:18:46;99395.60;;;18.20
68127;BMP180;54931;52.098;21.006;2023-09-19T06:21:15;99395.20;;;18.30
68127;BMP180;54931;52.098;21.006;2023-09-19T06:23:43;99401.00;;;18.30
68127;BMP180;54931;52.098;21.006;2023-09-19T06:26:11;99408.20;;;18.40
68127;BMP180;54931;52.098;21.006;2023-09-19T06:28:41;99408.40;;;18.50
68127;BMP180;54931;52.098;21.006;2023-09-19T06:31:10;99413.40;;;18.50
68127;BMP180;54931;52.098;21.006;2023-09-19T06:33:39;99422.00;;;18.60
68127;BMP180;54931;52.098;21.006;2023-09-19T06:36:07;99432.00;;;18.68
68127;BMP180;54931;52.098;21.006;2023-09-19T06:38:36;99444.40;;;18.70
68127;BMP180;54931;52.098;21.006;2023-09-19T06:41:07;99455.20;;;18.68
68127;BMP180;54931;52.098;21.006;2023-09-19T06:43:36;99457.40;;;18.70
68127;BMP180;54931;52.098;21.006;2023-09-19T06:46:04;99451.80;;;18.70
68127;BMP180;54931;52.098;21.006;2023-09-19T06:48:32;99449.80;;;18.80
68127;BMP180;54931;52.098;21.006;2023-09-19T06:51:01;99450.60;;;18.90
68127;BMP180;54931;52.098;21.006;2023-09-19T06:53:32;99449.40;;;19.04
68127;BMP180;54931;52.098;21.006;2023-09-19T06:56:03;99456.20;;;19.20
68127;BMP180;54931;52.098;21.006;2023-09-19T06:58:31;99453.40;;;19.30
68127;BMP180;54931;52.098;21.006;2023-09-19T07:00:58;99446.20;;;19.40
68127;BMP180;54931;52.098;21.006;2023-09-19T07:03:26;99443.20;;;19.50
68127;BMP180;54931;52.098;21.006;2023-09-19T07:05:56;99444.40;;;19.70
68127;BMP180;54931;52.098;21.006;2023-09-19T07:08:24;99440.20;;;19.90
68127;BMP180;54931;52.098;21.006;2023-09-19T07:10:52;99445.80;;;20.30
68127;BMP180;54931;52.098;21.006;2023-09-19T07:13:20;99449.60;;;20.60
68127;BMP180;54931;52.098;21.006;2023-09-19T07:15:47;99454.80;;;20.90
68127;BMP180;54931;52.098;21.006;2023-09-19T07:18:18;99455.20;;;21.10
68127;BMP180;54931;52.098;21.006;2023-09-19T07:20:46;99466.60;;;21.40
68127;BMP180;54931;52.098;21.006;2023-09-19T07:23:20;99465.40;;;21.58
68127;BMP180;54931;52.098;21.006;2023-09-19T07:25:50;99471.80;;;22.08
68127;BMP180;54931;52.098;21.006;2023-09-19T07:28:18;99472.20;;;22.38
68127;BMP180;54931;52.098;21.006;2023-09-19T07:30:45;99473.00;;;22.50
68127;BMP180;54931;52.098;21.006;2023-09-19T07:33:13;99475.00;;;22.60
68127;BMP180;54931;52.098;21.006;2023-09-19T07:35:46;99476.40;;;22.70
68127;BMP180;54931;52.098;21.006;2023-09-19T07:38:14;99477.80;;;22.70
68127;BMP180;54931;52.098;21.006;2023-09-19T07:40:42;99477.80;;;22.60
68127;BMP180;54931;52.098;21.006;2023-09-19T07:43:11;99482.60;;;22.50
68127;BMP180;54931;52.098;21.006;2023-09-19T07:45:39;99488.00;;;22.80
68127;BMP180;54931;52.098;21.006;2023-09-19T07:48:07;99493.00;;;22.84
68127;BMP180;54931;52.098;21.006;2023-09-19T07:50:42;99492.20;;;22.80
68127;BMP180;54931;52.098;21.006;2023-09-19T07:53:11;99498.60;;;22.90
68127;BMP180;54931;52.098;21.006;2023-09-19T07:55:40;99496.60;;;23.00
68127;BMP180;54931;52.098;21.006;2023-09-19T07:58:09;99496.80;;;23.00
68127;BMP180;54931;52.098;21.006;2023-09-19T08:00:36;99495.20;;;23.00
68127;BMP180;54931;52.098;21.006;2023-09-19T08:03:04;99492.00;;;22.90
68127;BMP180;54931;52.098;21.006;2023-09-19T08:05:33;99495.40;;;22.80
68127;BMP180;54931;52.098;21.006;2023-09-19T08:08:15;99496.80;;;22.80
68127;BMP180;54931;52.098;21.006;2023-09-19T08:10:44;99504.40;;;22.70
68127;BMP180;54931;52.098;21.006;2023-09-19T08:13:16;99505.00;;;22.60
68127;BMP180;54931;52.098;21.006;2023-09-19T08:15:45;99502.80;;;22.50
68127;BMP180;54931;52.098;21.006;2023-09-19T08:18:15;99499.60;;;22.40
68127;BMP180;54931;52.098;21.006;2023-09-19T08:20:43;99502.20;;;22.30
68127;BMP180;54931;52.098;21.006;2023-09-19T08:23:13;99502.00;;;22.30
68127;BMP180;54931;52.098;21.006;2023-09-19T08:25:41;99502.40;;;22.24
68127;BMP180;54931;52.098;21.006;2023-09-19T08:28:09;99503.40;;;22.30
68127;BMP180;54931;52.098;21.006;2023-09-19T08:30:45;99509.00;;;22.20
68127;BMP180;54931;52.098;21.006;2023-09-19T08:33:13;99507.80;;;22.10
68127;BMP180;54931;52.098;21.006;2023-09-19T08:35:43;99510.00;;;22.00
68127;BMP180;54931;52.098;21.006;2023-09-19T08:38:11;99508.80;;;21.80
68127;BMP180;54931;52.098;21.006;2023-09-19T08:40:39;99510.80;;;21.70
68127;BMP180;54931;52.098;21.006;2023-09-19T08:43:09;99506.20;;;21.50
68127;BMP180;54931;52.098;21.006;2023-09-19T08:45:37;99504.60;;;21.40
68127;BMP180;54931;52.098;21.006;2023-09-19T08:50:43;99502.60;;;21.30
68127;BMP180;54931;52.098;21.006;2023-09-19T08:53:27;99505.40;;;21.30
68127;BMP180;54931;52.098;21.006;2023-09-19T08:56:00;99504.80;;;21.30
68127;BMP180;54931;52.098;21.006;2023-09-19T08:58:39;99505.80;;;21.20
68127;BMP180;54931;52.098;21.006;2023-09-19T09:01:13;99506.20;;;21.20
68127;BMP180;54931;52.098;21.006;2023-09-19T09:03:43;99506.80;;;21.10
68127;BMP180;54931;52.098;21.006;2023-09-19T09:06:14;99507.40;;;21.10
68127;BMP180;54931;52.098;21.006;2023-09-19T09:08:44;99506.20;;;21.10
68127;BMP180;54931;52.098;21.006;2023-09-19T09:11:13;99509.40;;;21.00
68127;BMP180;54931;52.098;21.006;2023-09-19T09:13:42;99513.80;;;21.00
68127;BMP180;54931;52.098;21.006;2023-09-19T09:16:10;99518.20;;;21.10
68127;BMP180;54931;52.098;21.006;2023-09-19T09:18:38;99528.40;;;21.10
68127;BMP180;54931;52.098;21.006;2023-09-19T09:21:06;99530.20;;;21.00
68127;BMP180;54931;52.098;21.006;2023-09-19T09:23:34;99539.20;;;20.90
68127;BMP180;54931;52.098;21.006;2023-09-19T09:26:03;99541.60;;;20.80
68127;BMP180;54931;52.098;21.006;2023-09-19T09:28:36;99542.20;;;20.70
68127;BMP180;54931;52.098;21.006;2023-09-19T09:31:22;99546.60;;;20.70
68127;BMP180;54931;52.098;21.006;2023-09-19T09:33:55;99553.80;;;20.50
68127;BMP180;54931;52.098;21.006;2023-09-19T09:36:39;99557.20;;;20.36
68127;BMP180;54931;52.098;21.006;2023-09-19T09:39:10;99564.20;;;20.20
68127;BMP180;54931;52.098;21.006;2023-09-19T09:41:46;99571.80;;;20.00
68127;BMP180;54931;52.098;21.006;2023-09-19T09:44:17;99572.20;;;19.90
68127;BMP180;54931;52.098;21.006;2023-09-19T09:46:48;99584.60;;;19.80
68127;BMP180;54931;52.098;21.006;2023-09-19T09:49:25;99584.00;;;19.60
68127;BMP180;54931;52.098;21.006;2023-09-19T09:52:03;99600.20;;;19.40
68127;BMP180;54931;52.098;21.006;2023-09-19T09:54:36;99612.20;;;19.18
68127;BMP180;54931;52.098;21.006;2023-09-19T09:57:11;99620.40;;;18.82
68127;BMP180;54931;52.098;21.006;2023-09-19T10:04:54;99625.00;;;18.10
68127;BMP180;54931;52.098;21.006;2023-09-19T10:07:41;99622.80;;;18.00
68127;BMP180;54931;52.098;21.006;2023-09-19T10:10:38;99624.40;;;17.90
68127;BMP180;54931;52.098;21.006;2023-09-19T10:13:30;99626.60;;;17.80
68127;BMP180;54931;52.098;21.006;2023-09-19T10:15:59;99623.00;;;17.80
68127;BMP180;54931;52.098;21.006;2023-09-19T10:18:36;99623.60;;;17.80
68127;BMP180;54931;52.098;21.006;2023-09-19T10:21:09;99618.00;;;17.80
68127;BMP180;54931;52.098;21.006;2023-09-19T10:23:40;99611.20;;;17.80
68127;BMP180;54931;52.098;21.006;2023-09-19T10:26:11;99613.00;;;17.88
68127;BMP180;54931;52.098;21.006;2023-09-19T10:28:39;99613.00;;;17.90
68127;BMP180;54931;52.098;21.006;2023-09-19T10:31:07;99612.00;;;17.96
68127;BMP180;54931;52.098;21.006;2023-09-19T10:33:37;99612.60;;;18.00
68127;BMP180;54931;52.098;21.006;2023-09-19T10:36:07;99610.40;;;18.00
68127;BMP180;54931;52.098;21.006;2023-09-19T10:38:38;99607.20;;;18.10
68127;BMP180;54931;52.098;21.006;2023-09-19T10:41:14;99606.60;;;18.20
68127;BMP180;54931;52.098;21.006;2023-09-19T10:43:45;99607.80;;;18.30
68127;BMP180;54931;52.098;21.006;2023-09-19T10:46:15;99612.20;;;18.30
68127;BMP180;54931;52.098;21.006;2023-09-19T10:48:43;99604.80;;;18.32
68127;BMP180;54931;52.098;21.006;2023-09-19T10:51:21;99605.80;;;18.40
68127;BMP180;54931;52.098;21.006;2023-09-19T10:54:06;99607.20;;;18.50
68127;BMP180;54931;52.098;21.006;2023-09-19T10:56:44;99606.40;;;18.50
68127;BMP180;54931;52.098;21.006;2023-09-19T10:59:18;99602.80;;;18.56
68127;BMP180;54931;52.098;21.006;2023-09-19T11:01:47;99608.00;;;18.50
68127;BMP180;54931;52.098;21.006;2023-09-19T11:07:11;99609.20;;;18.50
68127;BMP180;54931;52.098;21.006;2023-09-19T11:09:56;99606.00;;;18.50
68127;BMP180;54931;52.098;21.006;2023-09-19T11:14:59;99616.80;;;18.48
68127;BMP180;54931;52.098;21.006;2023-09-19T11:17:43;99617.00;;;18.50
68127;BMP180;54931;52.098;21.006;2023-09-19T11:20:21;99616.00;;;18.50
68127;BMP180;54931;52.098;21.006;2023-09-19T11:23:18;99619.20;;;18.50
68127;BMP180;54931;52.098;21.006;2023-09-19T11:25:45;99615.80;;;18.52
68127;BMP180;54931;52.098;21.006;2023-09-19T11:30:51;99627.20;;;18.62
68127;BMP180;54931;52.098;21.006;2023-09-19T11:33:31;99628.40;;;18.76
68127;BMP180;54931;52.098;21.006;2023-09-19T11:36:07;99627.00;;;18.80
68127;BMP180;54931;52.098;21.006;2023-09-19T11:46:55;99630.40;;;19.02
68127;BMP180;54931;52.098;21.006;2023-09-19T11:49:30;99630.00;;;19.10
68127;BMP180;54931;52.098;21.006;2023-09-19T11:52:04;99626.20;;;19.10
68127;BMP180;54931;52.098;21.006;2023-09-19T11:54:33;99626.60;;;19.10
68127;BMP180;54931;52.098;21.006;2023-09-19T11:57:01;99632.60;;;19.10
68127;BMP180;54931;52.098;21.006;2023-09-19T11:59:30;99629.00;;;19.10
68127;BMP180;54931;52.098;21.006;2023-09-19T12:02:06;99626.80;;;19.00
68127;BMP180;54931;52.098;21.006;2023-09-19T12:04:44;99630.00;;;19.00
68127;BMP180;54931;52.098;21.006;2023-09-19T12:07:16;99625.60;;;18.90
68127;BMP180;54931;52.098;21.006;2023-09-19T12:09:48;99635.60;;;19.00
68127;BMP180;54931;52.098;21.006;2023-09-19T12:12:25;99638.80;;;19.00
68127;BMP180;54931;52.098;21.006;2023-09-19T12:15:06;99642.60;;;18.98
68127;BMP180;54931;52.098;21.006;2023-09-19T12:17:42;99639.40;;;18.90
68127;BMP180;54931;52.098;21.006;2023-09-19T12:20:12;99646.00;;;18.90
68127;BMP180;54931;52.098;21.006;2023-09-19T12:22:46;99648.60;;;18.80
68127;BMP180;54931;52.098;21.006;2023-09-19T12:25:15;99652.60;;;18.80
68127;BMP180;54931;52.098;21.006;2023-09-19T12:27:49;99653.00;;;18.78
68127;BMP180;54931;52.098;21.006;2023-09-19T12:30:28;99662.40;;;18.70
68127;BMP180;54931;52.098;21.006;2023-09-19T12:33:05;99664.40;;;18.70
68127;BMP180;54931;52.098;21.006;2023-09-19T12:35:33;99668.60;;;18.70
68127;BMP180;54931;52.098;21.006;2023-09-19T12:38:04;99666.40;;;18.70
68127;BMP180;54931;52.098;21.006;2023-09-19T12:40:34;99673.00;;;18.70
68127;BMP180;54931;52.098;21.006;2023-09-19T12:43:07;99669.60;;;18.70
68127;BMP180;54931;52.098;21.006;2023-09-19T12:45:47;99670.20;;;18.76
68127;BMP180;54931;52.098;21.006;2023-09-19T12:48:19;99670.20;;;18.80
68127;BMP180;54931;52.098;21.006;2023-09-19T12:51:13;99668.20;;;18.80
68127;BMP180;54931;52.098;21.006;2023-09-19T12:53:46;99661.40;;;18.80
68127;BMP180;54931;52.098;21.006;2023-09-19T12:56:43;99661.80;;;18.90
68127;BMP180;54931;52.098;21.006;2023-09-19T12:59:30;99654.00;;;18.90
68127;BMP180;54931;52.098;21.006;2023-09-19T13:02:05;99654.00;;;19.00
68127;BMP180;54931;52.098;21.006;2023-09-19T13:04:36;99652.20;;;19.04
68127;BMP180;54931;52.098;21.006;2023-09-19T13:07:41;99650.60;;;19.10
68127;BMP180;54931;52.098;21.006;2023-09-19T13:10:23;99650.20;;;19.20
68127;BMP180;54931;52.098;21.006;2023-09-19T13:12:51;99657.40;;;19.20
68127;BMP180;54931;52.098;21.006;2023-09-19T13:15:19;99653.60;;;19.20
68127;BMP180;54931;52.098;21.006;2023-09-19T13:17:49;99651.40;;;19.20
68127;BMP180;54931;52.098;21.006;2023-09-19T13:20:27;99652.00;;;19.20
68127;BMP180;54931;52.098;21.006;2023-09-19T13:22:59;99652.40;;;19.20
68127;BMP180;54931;52.098;21.006;2023-09-19T13:25:38;99656.00;;;19.20
68127;BMP180;54931;52.098;21.006;2023-09-19T13:28:07;99654.40;;;19.20
68127;BMP180;54931;52.098;21.006;2023-09-19T13:30:37;99653.80;;;19.26
68127;BMP180;54931;52.098;21.006;2023-09-19T13:33:11;99654.00;;;19.30
68127;BMP180;54931;52.098;21.006;2023-09-19T13:35:43;99656.00;;;19.30
68127;BMP180;54931;52.098;21.006;2023-09-19T13:38:14;99669.60;;;19.30
68127;BMP180;54931;52.098;21.006;2023-09-19T13:40:42;99665.60;;;19.30
68127;BMP180;54931;52.098;21.006;2023-09-19T13:43:13;99664.40;;;19.30
68127;BMP180;54931;52.098;21.006;2023-09-19T13:45:41;99664.80;;;19.30
68127;BMP180;54931;52.098;21.006;2023-09-19T13:48:28;99668.20;;;19.40
68127;BMP180;54931;52.098;21.006;2023-09-19T13:50:57;99674.00;;;19.40
68127;BMP180;54931;52.098;21.006;2023-09-19T13:53:25;99670.40;;;19.40
68127;BMP180;54931;52.098;21.006;2023-09-19T13:56:01;99668.00;;;19.40
68127;BMP180;54931;52.098;21.006;2023-09-19T13:58:29;99670.60;;;19.40
68127;BMP180;54931;52.098;21.006;2023-09-19T14:01:02;99669.00;;;19.42
68127;BMP180;54931;52.098;21.006;2023-09-19T14:03:31;99666.60;;;19.50
68127;BMP180;54931;52.098;21.006;2023-09-19T14:06:02;99664.00;;;19.50
68127;BMP180;54931;52.098;21.006;2023-09-19T14:08:31;99668.00;;;19.46
68127;BMP180;54931;52.098;21.006;2023-09-19T14:11:08;99672.80;;;19.40
68127;BMP180;54931;52.098;21.006;2023-09-19T14:13:38;99673.20;;;19.40
68127;BMP180;54931;52.098;21.006;2023-09-19T14:16:10;99675.80;;;19.40
68127;BMP180;54931;52.098;21.006;2023-09-19T14:18:37;99678.40;;;19.40
68127;BMP180;54931;52.098;21.006;2023-09-19T14:21:06;99677.80;;;19.40
68127;BMP180;54931;52.098;21.006;2023-09-19T14:23:41;99683.60;;;19.40
68127;BMP180;54931;52.098;21.006;2023-09-19T14:26:16;99682.60;;;19.40
68127;BMP180;54931;52.098;21.006;2023-09-19T14:28:47;99683.60;;;19.30
68127;BMP180;54931;52.098;21.006;2023-09-19T14:31:18;99684.60;;;19.30
68127;BMP180;54931;52.098;21.006;2023-09-19T14:33:57;99684.40;;;19.24
68127;BMP180;54931;52.098;21.006;2023-09-19T14:36:43;99686.20;;;19.20
68127;BMP180;54931;52.098;21.006;2023-09-19T14:39:12;99687.80;;;19.10
68127;BMP180;54931;52.098;21.006;2023-09-19T14:41:40;99685.80;;;19.10
68127;BMP180;54931;52.098;21.006;2023-09-19T14:44:15;99686.20;;;19.10
68127;BMP180;54931;52.098;21.006;2023-09-19T14:46:46;99690.00;;;19.10
68127;BMP180;54931;52.098;21.006;2023-09-19T14:49:19;99691.40;;;19.10
68127;BMP180;54931;52.098;21.006;2023-09-19T14:51:59;99691.00;;;19.10
68127;BMP180;54931;52.098;21.006;2023-09-19T14:54:27;99687.60;;;19.10
68127;BMP180;54931;52.098;21.006;2023-09-19T14:56:56;99694.20;;;19.10
68127;BMP180;54931;52.098;21.006;2023-09-19T14:59:35;99690.80;;;19.10
68127;BMP180;54931;52.098;21.006;2023-09-19T15:02:08;99697.00;;;19.10